Time;durP1;ratioP1;P1;durP2;ratioP2;P2;SDS_P1;SDS_P2;PMS_P1;PMS_P2;Temp;Humidity;BMP_temperature;BMP_pressure;BME280_temperature;BME280_humidity;BME280_pressure;Samples;Min_cycle;Max_cycle;Signal;HPM_P1;HPM_P2
2022/06/16 00:01:29;;;;;;;6.95;4.50;;;;;;;;;;4986771;28;20177;-77
2022/06/16 00:03:55;;;;;;;6.25;4.38;;;;;;;15.74;68.35;68522.72;4987403;28;20078;-77
2022/06/16 00:06:21;;;;;;;6.55;4.70;;;;;;;15.70;68.50;68518.16;4987378;28;20407;-77
2022/06/16 00:08:47;;;;;;;6.55;4.13;;;;;;;15.62;68.90;68509.00;4987208;28;20074;-78
2022/06/16 00:11:19;;;;;;;5.63;4.60;;;;;;;15.58;69.45;68505.03;4987810;28;20042;-76
2022/06/16 00:13:45;;;;;;;8.10;4.80;;;;;;;15.53;69.30;68499.31;4988906;28;20066;-78
2022/06/16 00:16:12;;;;;;;6.70;4.50;;;;;;;15.50;69.77;68496.47;4987459;28;20030;-77
2022/06/16 00:18:38;;;;;;;6.30;4.60;;;;;;;15.55;69.72;68501.59;4988081;28;20042;-76
2022/06/16 00:21:06;;;;;;;8.50;4.90;;;;;;;15.52;69.44;68498.75;4986358;28;20027;-77
2022/06/16 00:23:31;;;;;;;9.55;4.55;;;;;;;15.55;69.62;68502.16;4987935;28;20172;-77
2022/06/16 00:25:57;;;;;;;7.68;4.93;;;;;;;15.51;69.39;68497.63;4986880;28;20050;-77
2022/06/16 00:28:23;;;;;;;10.60;5.20;;;;;;;15.45;69.92;68490.78;4987281;28;20482;-77
2022/06/16 00:30:48;;;;;;;7.43;5.07;;;;;;;15.34;70.77;68478.25;4985913;28;20513;-77
2022/06/16 00:33:14;;;;;;;8.55;5.10;;;;;;;15.24;70.89;68466.84;4972062;28;20146;-76
2022/06/16 00:35:39;;;;;;;8.07;5.55;;;;;;;15.24;71.09;68470.09;4990036;28;20045;-76
2022/06/16 00:38:05;;;;;;;9.13;5.20;;;;;;;15.24;70.85;68467.41;4973826;28;20057;-78
2022/06/16 00:40:30;;;;;;;5.95;4.40;;;;;;;;;;4991613;28;20037;-74
2022/06/16 00:42:55;;;;;;;9.68;5.03;;;;;;;15.16;71.28;68452.38;4972690;28;20045;-76
2022/06/16 00:45:54;;;;;;;8.60;5.10;;;;;;;15.13;71.31;68454.88;4994197;28;20067;-76
2022/06/16 00:48:41;;;;;;;6.20;4.72;;;;;;;15.03;70.58;68446.75;4991010;28;20046;-77
2022/06/16 00:51:19;;;;;;;8.32;4.97;;;;;;;15.00;70.76;68440.09;4990024;28;20050;-77
2022/06/16 00:53:45;;;;;;;10.07;4.88;;;;;;;14.96;70.86;68436.13;4985398;28;20061;-75
2022/06/16 00:56:16;;;;;;;7.20;4.97;;;;;;;14.98;70.31;68440.50;4983125;28;20038;-77
2022/06/16 00:58:43;;;;;;;5.97;3.90;;;;;;;;;;4984817;28;20038;-77
2022/06/16 01:01:09;;;;;;;7.53;4.53;;;;;;;14.95;70.39;68437.63;4984414;28;20046;-76
2022/06/16 01:06:23;;;;;;;7.15;4.40;;;;;;;14.87;70.53;68421.06;4988882;28;20045;-76
2022/06/16 01:08:54;;;;;;;6.70;4.45;;;;;;;14.75;70.66;68412.75;4993136;28;20061;-77
2022/06/16 01:14:29;;;;;;;8.05;4.93;;;;;;;14.69;70.89;68408.03;4985878;28;20119;-77
2022/06/16 01:16:59;;;;;;;6.75;4.55;;;;;;;14.61;71.10;68402.75;5007305;28;20117;-76
2022/06/16 01:19:24;;;;;;;9.65;5.07;;;;;;;;;;4974577;28;20049;-76
2022/06/16 01:22:03;;;;;;;6.35;4.20;;;;;;;;;;4980301;28;20042;-76
2022/06/16 01:24:35;;;;;;;9.18;4.72;;;;;;;14.56;71.35;68385.78;4981873;28;20065;-76
2022/06/16 01:27:32;;;;;;;7.28;4.28;;;;;;;14.51;71.68;68385.97;4991763;28;20114;-75
2022/06/16 01:30:05;;;;;;;6.80;4.45;;;;;;;14.45;71.60;68379.16;4971728;28;20775;-77
2022/06/16 01:32:52;;;;;;;6.80;4.50;;;;;;;14.47;71.82;68381.41;4996127;28;20779;-76
2022/06/16 01:35:28;;;;;;;7.25;4.57;;;;;;;14.45;71.66;68381.84;4986139;28;20533;-77
2022/06/16 01:38:05;;;;;;;7.40;4.93;;;;;;;14.43;71.86;68382.78;4980106;28;20042;-76
2022/06/16 01:40:39;;;;;;;8.70;4.78;;;;;;;14.41;72.10;68377.84;4942354;28;20043;-76
2022/06/16 01:43:08;;;;;;;7.30;4.60;;;;;;;14.39;72.52;68375.00;4959439;28;20042;-76
2022/06/16 01:45:41;;;;;;;7.65;4.82;;;;;;;14.37;72.62;68370.63;4992580;28;20046;-76
2022/06/16 01:48:10;;;;;;;8.82;4.70;;;;;;;14.43;72.08;68377.44;5005979;28;20037;-76
2022/06/16 01:50:44;;;;;;;9.98;4.97;;;;;;;14.47;71.96;68384.09;4998599;28;20104;-76
2022/06/16 01:53:16;;;;;;;9.18;4.70;;;;;;;14.51;72.14;68390.78;5003051;28;20038;-77
2022/06/16 01:55:49;;;;;;;6.60;4.88;;;;;;;14.43;72.43;68382.78;4976004;28;20049;-77
2022/06/16 01:58:30;;;;;;;7.35;5.28;;;;;;;14.45;72.72;68379.72;4987596;28;20078;-76
2022/06/16 02:01:00;;;;;;;7.53;5.00;;;;;;;14.40;73.06;68373.47;4989208;28;20092;-76
2022/06/16 02:03:28;;;;;;;10.07;5.38;;;;;;;;;;5005228;28;20044;-75
2022/06/16 02:06:05;;;;;;;9.50;5.60;;;;;;;;;;4987894;28;20585;-76
2022/06/16 02:08:37;;;;;;;7.65;4.82;;;;;;;;;;5007158;28;20076;-77
2022/06/16 02:11:25;;;;;;;9.75;4.93;;;;;;;;;;5001925;28;20456;-75
2022/06/16 02:13:54;;;;;;;8.27;5.10;;;;;;;;;;4995856;28;20078;-75
2022/06/16 02:16:24;;;;;;;7.57;5.07;;;;;;;14.03;74.64;68332.47;4985576;28;20513;-76
2022/06/16 02:18:51;;;;;;;7.65;4.90;;;;;;;;;;4992064;28;20046;-76
2022/06/16 02:21:25;;;;;;;7.15;5.50;;;;;;;13.81;75.62;68310.13;4997961;28;20042;-76
2022/06/16 02:23:51;;;;;;;8.75;5.63;;;;;;;;;;5004200;28;20050;-76
2022/06/16 02:26:16;;;;;;;6.50;5.55;;;;;;;;;;5005292;28;20049;-76
2022/06/16 02:28:48;;;;;;;10.70;5.63;;;;;;;13.53;76.78;68277.31;4978443;28;20065;-77
2022/06/16 02:31:32;;;;;;;9.82;6.03;;;;;;;13.42;77.44;68264.22;5006377;28;20042;-76
2022/06/16 02:34:17;;;;;;;8.88;5.82;;;;;;;13.34;77.94;68255.13;4968697;28;20136;-77
2022/06/16 02:37:06;;;;;;;8.18;5.90;;;;;;;13.43;77.73;68268.59;4983362;28;20042;-77
2022/06/16 02:39:46;;;;;;;11.80;5.85;;;;;;;;;;4950180;28;20683;-76
2022/06/16 02:42:27;;;;;;;7.90;5.43;;;;;;;13.37;78.20;68259.09;5000192;28;20456;-78
2022/06/16 02:45:07;;;;;;;10.90;6.05;;;;;;;13.32;78.05;68259.34;5002282;28;20512;-76
2022/06/16 02:47:48;;;;;;;9.48;5.60;;;;;;;13.34;77.98;68260.47;4963412;28;20046;-77
2022/06/16 02:50:41;;;;;;;9.27;5.80;;;;;;;13.05;79.04;68225.94;5005942;28;20045;-77
2022/06/16 02:53:12;;;;;;;8.20;5.22;;;;;;;13.04;79.06;68225.38;4977361;28;20051;-77
2022/06/16 02:55:45;;;;;;;11.32;6.63;;;;;;;13.13;79.14;68232.34;5004229;28;20103;-77
2022/06/16 02:58:13;;;;;;;8.07;5.07;;;;;;;;;;4985823;28;20120;-76
2022/06/16 03:00:41;;;;;;;9.65;6.22;;;;;;;;;;4987911;28;20053;-77
2022/06/16 03:03:30;;;;;;;9.85;5.55;;;;;;;12.97;79.61;68214.16;5000131;28;20045;-77
2022/06/16 03:05:58;;;;;;;9.73;5.90;;;;;;;12.92;80.33;68211.13;4993609;28;20053;-76
2022/06/16 03:08:26;;;;;;;10.40;6.78;;;;;;;12.83;80.60;68199.38;5005325;28;20073;-76
2022/06/16 03:10:54;;;;;;;6.38;5.72;;;;;;;12.76;80.80;68190.84;5007367;28;20038;-76
2022/06/16 03:13:26;;;;;;;8.50;5.93;;;;;;;12.71;81.17;68179.81;5003856;28;20042;-75
2022/06/16 03:15:52;;;;;;;10.48;6.97;;;;;;;;;;5014305;28;20129;-77
2022/06/16 03:18:18;;;;;;;10.38;6.93;;;;;;;12.66;81.43;68180.06;4996130;28;20193;-77
2022/06/16 03:20:44;;;;;;;10.25;6.70;;;;;;;12.51;82.19;68165.66;4988929;28;20035;-76
2022/06/16 03:23:10;;;;;;;10.85;6.90;;;;;;;;;;4998957;28;20038;-76
2022/06/16 03:25:36;;;;;;;10.80;7.13;;;;;;;12.63;81.75;68177.22;5008896;28;20042;-76
2022/06/16 03:28:02;;;;;;;9.02;6.50;;;;;;;12.63;81.79;68176.66;5003441;28;20506;-75
2022/06/16 03:30:27;;;;;;;10.88;7.18;;;;;;;12.57;82.03;68172.50;5001684;28;20052;-76
2022/06/16 03:32:52;;;;;;;11.27;7.90;;;;;;;12.49;82.57;68163.41;5001812;28;20050;-76
2022/06/16 03:35:18;;;;;;;11.68;6.95;;;;;;;12.36;83.50;68147.09;4998158;28;20172;-76
2022/06/16 03:37:43;;;;;;;10.32;7.88;;;;;;;;;;4986295;28;20053;-75
2022/06/16 03:40:13;;;;;;;10.63;7.13;;;;;;;12.26;84.04;68141.06;4974607;28;20042;-76
2022/06/16 03:42:38;;;;;;;12.23;7.55;;;;;;;12.41;83.34;68152.78;4990086;28;20050;-77
2022/06/16 03:45:05;;;;;;;9.77;7.13;;;;;;;12.38;83.39;68152.03;4970548;28;20652;-75
2022/06/16 03:47:30;;;;;;;9.18;7.60;;;;;;;12.23;84.13;68132.31;4982476;28;20093;-76
2022/06/16 03:49:55;;;;;;;12.32;7.25;;;;;;;12.26;84.36;68135.72;4987990;28;20502;-77
2022/06/16 03:52:21;;;;;;;9.20;7.22;;;;;;;12.25;84.39;68134.59;4960335;28;20058;-77
2022/06/16 03:54:47;;;;;;;10.68;7.13;;;;;;;12.30;84.08;68140.28;4974839;28;20563;-75
2022/06/16 03:57:12;;;;;;;11.93;7.88;;;;;;;12.25;84.42;68134.59;4993238;28;20053;-75
2022/06/16 03:59:37;;;;;;;11.43;7.50;;;;;;;12.15;85.32;68123.78;5008722;28;20042;-76
2022/06/16 04:02:03;;;;;;;12.48;7.35;;;;;;;12.14;85.48;68124.75;4989983;28;20042;-75
2022/06/16 04:04:28;;;;;;;12.23;7.50;;;;;;;12.22;85.06;68136.50;4997272;28;20565;-76
2022/06/16 04:06:54;;;;;;;11.52;7.20;;;;;;;12.23;85.35;68131.75;4967691;28;20054;-77
2022/06/16 04:09:20;;;;;;;11.00;7.00;;;;;;;12.27;85.46;68139.53;4975790;28;20494;-77
2022/06/16 04:11:45;;;;;;;11.50;7.18;;;;;;;12.25;85.39;68134.59;4977215;28;20061;-76
2022/06/16 04:14:13;;;;;;;10.48;6.38;;;;;;;12.35;85.01;68140.06;4992339;28;20129;-77
2022/06/16 04:16:41;;;;;;;10.52;6.93;;;;;;;12.28;85.80;68137.44;4986627;28;20498;-78
2022/06/16 04:19:07;;;;;;;10.75;6.82;;;;;;;12.28;86.10;68138.00;4996198;28;20089;-77
2022/06/16 04:21:37;;;;;;;12.20;6.53;;;;;;;12.39;85.61;68153.16;4990225;28;20053;-77
2022/06/16 04:24:02;;;;;;;;;;;;;;;12.37;85.97;68148.25;5002905;28;20038;-75
2022/06/16 04:26:27;;;;;;;10.32;6.78;;;;;;;12.28;86.81;68138.00;4994005;28;19922;-77
2022/06/16 04:28:53;;;;;;;9.32;6.68;;;;;;;12.34;86.65;68146.91;4996106;28;20533;-78
2022/06/16 04:31:18;;;;;;;11.68;6.90;;;;;;;12.50;86.09;68165.09;4984108;28;20058;-76
2022/06/16 04:33:43;;;;;;;10.65;6.78;;;;;;;12.60;85.59;68173.81;4993064;28;20050;-78
2022/06/16 04:36:10;;;;;;;11.48;6.38;;;;;;;12.60;85.95;68176.47;4990093;28;20041;-77
2022/06/16 04:38:36;;;;;;;8.75;6.38;;;;;;;12.69;85.56;68182.88;5006767;28;20579;-75
2022/06/16 04:41:02;;;;;;;9.75;6.53;;;;;;;12.73;85.22;68182.66;4973387;28;20050;-76
2022/06/16 04:43:27;;;;;;;9.45;6.47;;;;;;;;;;5005026;28;20096;-77
2022/06/16 04:45:55;;;;;;;10.88;6.47;;;;;;;12.88;85.49;68204.50;5001956;28;20523;-77
2022/06/16 04:48:20;;;;;;;8.57;6.53;;;;;;;13.04;84.61;68222.69;4989162;28;20038;-77
2022/06/16 04:50:45;;;;;;;10.75;6.65;;;;;;;13.07;85.13;68228.22;4988448;28;20600;-77
2022/06/16 04:53:11;;;;;;;9.30;5.90;;;;;;;13.14;85.07;68232.91;4977704;28;20042;-76
2022/06/16 04:55:36;;;;;;;8.70;6.03;;;;;;;13.20;84.69;68240.31;4982451;28;20043;-76
2022/06/16 04:58:03;;;;;;;10.55;6.55;;;;;;;13.21;85.00;68241.47;4978654;28;20042;-76
2022/06/16 05:00:29;;;;;;;8.77;5.88;;;;;;;13.14;85.38;68235.59;4987206;28;20303;-76
2022/06/16 05:02:54;;;;;;;13.43;5.55;;;;;;;13.21;85.33;68244.13;4990579;28;20662;-76
2022/06/16 05:05:20;;;;;;;11.70;6.22;;;;;;;13.31;85.05;68246.94;4992619;28;20045;-77
2022/06/16 05:07:46;;;;;;;9.55;6.32;;;;;;;13.33;85.26;68257.22;4988625;28;20054;-77
2022/06/16 05:10:12;;;;;;;9.73;6.50;;;;;;;13.32;85.45;68254.00;4984641;28;20089;-76
2022/06/16 05:12:52;;;;;;;11.57;6.55;;;;;;;13.39;85.29;68260.81;5019888;22;20053;-88
2022/06/16 05:16:02;;;;;;;10.52;6.10;;;;;;;13.45;85.27;68268.19;4960001;28;20039;-88
2022/06/16 05:18:26;;;;;;;13.02;6.00;;;;;;;;;;4960113;28;20042;-86
2022/06/16 05:20:54;;;;;;;13.10;6.32;;;;;;;;;;4976938;28;20313;-90
2022/06/16 05:23:45;;;;;;;10.05;6.15;;;;;;;13.53;85.96;68279.41;4948695;28;20070;-87
2022/06/16 05:26:20;;;;;;;12.20;6.65;;;;;;;13.70;84.97;68296.06;4935081;28;20038;-88
2022/06/16 05:28:46;;;;;;;9.48;5.95;;;;;;;13.80;84.84;68309.00;4886244;29;20059;-89
2022/06/16 05:31:36;;;;;;;10.18;5.78;;;;;;;13.85;84.36;68312.00;4896692;29;20044;-88
2022/06/16 05:34:22;;;;;;;8.95;5.47;;;;;;;13.82;84.55;68303.81;4858793;29;20048;-88
2022/06/16 05:36:55;;;;;;;7.65;5.53;;;;;;;13.93;84.42;68315.75;4900466;29;20047;-89
2022/06/16 05:39:41;;;;;;;10.30;5.10;;;;;;;;;;4921035;29;20638;-87
2022/06/16 05:42:20;;;;;;;7.50;5.18;;;;;;;13.94;84.24;68322.81;4873460;29;20066;-88
2022/06/16 05:45:31;;;;;;;9.85;5.35;;;;;;;;;;4898261;29;20047;-88
2022/06/16 05:47:44;;;;;;;8.52;5.43;;;;;;;14.12;84.31;68348.06;4885850;29;20232;-88
2022/06/16 05:50:19;;;;;;;8.75;4.45;;;;;;;;;;4870264;28;20048;-87
2022/06/16 05:52:53;;;;;;;8.98;4.53;;;;;;;;;;4865765;29;20052;-87
2022/06/16 05:55:31;;;;;;;9.15;5.10;;;;;;;14.44;83.24;68378.00;4866726;29;20052;-89
2022/06/16 05:58:07;;;;;;;8.50;4.60;;;;;;;14.53;82.17;68390.38;4885488;29;20630;-87
2022/06/16 06:00:35;;;;;;;7.63;4.05;;;;;;;14.59;82.24;68400.47;4858809;29;20044;-88
2022/06/16 06:03:04;;;;;;;7.40;3.85;;;;;;;14.66;81.06;68403.06;4860057;29;20047;-92
2022/06/16 06:05:33;;;;;;;7.90;4.20;;;;;;;14.66;81.21;68403.06;4855950;29;20041;-88
2022/06/16 06:16:39;;;;;;;;;;;;;;;;;;;;;
2022/06/16 06:19:33;;;;;;;8.20;3.25;;;;;;;15.07;78.50;68443.25;4892440;29;20039;-90
2022/06/16 06:22:13;;;;;;;;;;;;;;;;;;;;;
2022/06/16 06:25:06;;;;;;;6.07;3.53;;;;;;;15.31;77.41;68474.84;4848228;29;20046;-88
2022/06/16 06:27:44;;;;;;;6.57;4.03;;;;;;;;;;4828849;29;20064;-88
2022/06/16 06:30:18;;;;;;;7.20;3.70;;;;;;;;;;4847097;29;20057;-88
2022/06/16 06:33:02;;;;;;;7.70;3.63;;;;;;;15.62;76.06;68503.63;4810085;29;20037;-87
2022/06/16 06:35:30;;;;;;;6.30;3.25;;;;;;;;;;4789161;29;20206;-88
2022/06/16 06:37:58;;;;;;;7.20;3.70;;;;;;;15.71;75.70;68514.50;4775310;29;20438;-89
2022/06/16 06:40:31;;;;;;;5.78;2.80;;;;;;;;;;4762384;29;20042;-87
2022/06/16 06:43:02;;;;;;;5.75;2.50;;;;;;;;;;4772306;29;20089;-87
2022/06/16 06:45:38;;;;;;;6.50;2.63;;;;;;;15.95;72.02;68546.06;4764288;29;20039;-88
2022/06/16 06:48:16;;;;;;;6.78;2.70;;;;;;;16.00;72.86;68552.34;4753737;30;20051;-88
2022/06/16 06:50:44;;;;;;;5.63;2.30;;;;;;;;;;4747808;30;20137;-86
2022/06/16 06:53:14;;;;;;;4.38;2.10;;;;;;;16.20;70.27;68574.00;4751226;29;20055;-87
2022/06/16 06:55:43;;;;;;;6.53;2.25;;;;;;;;;;4793571;29;20046;-88
2022/06/16 06:58:10;;;;;;;7.30;2.10;;;;;;;;;;4796602;29;20047;-90
2022/06/16 07:00:38;;;;;;;4.78;2.00;;;;;;;16.59;68.79;68617.31;4800335;29;20050;-88
2022/06/16 07:03:05;;;;;;;4.07;2.10;;;;;;;16.54;67.99;68606.22;4810257;29;20056;-88
2022/06/16 07:05:32;;;;;;;4.38;1.92;;;;;;;16.70;67.66;68625.06;4813231;29;20046;-90
2022/06/16 07:08:00;;;;;;;3.53;1.48;;;;;;;16.83;66.67;68638.75;4809760;29;20058;-88
2022/06/16 07:10:26;;;;;;;4.82;1.83;;;;;;;;;;4812936;29;20536;-88
2022/06/16 07:12:54;;;;;;;3.55;1.70;;;;;;;16.99;64.68;68664.50;4853155;29;20056;-88
2022/06/16 07:15:31;;;;;;;3.57;1.83;;;;;;;16.97;64.52;68659.53;4905729;29;20052;-87
2022/06/16 07:18:06;;;;;;;4.10;1.73;;;;;;;17.13;64.53;68677.78;4901099;29;20311;-90
2022/06/16 07:20:40;;;;;;;3.95;1.23;;;;;;;;;;4928147;29;20051;-90
2022/06/16 07:23:32;;;;;;;2.72;1.17;;;;;;;;;;4911089;29;20587;-89
2022/06/16 07:26:04;;;;;;;4.22;1.20;;;;;;;;;;4888867;29;20110;-88
2022/06/16 07:28:51;;;;;;;5.22;1.40;;;;;;;17.56;61.73;68720.88;4904336;29;20052;-88
2022/06/16 07:31:23;;;;;;;4.07;1.10;;;;;;;17.49;60.35;68717.72;4865428;29;20086;-88
2022/06/16 07:33:48;;;;;;;2.55;1.02;;;;;;;;;;4818850;29;20240;-90
2022/06/16 07:36:29;;;;;;;2.70;1.02;;;;;;;17.56;59.14;68726.28;4782365;29;20755;-90
2022/06/16 07:38:58;;;;;;;2.25;1.02;;;;;;;17.62;59.84;68726.59;4800027;29;20039;-88
2022/06/16 07:41:31;;;;;;;4.47;1.08;;;;;;;17.81;60.11;68748.88;4806539;29;20053;-88
2022/06/16 07:44:13;;;;;;;3.40;1.27;;;;;;;17.74;60.00;68740.28;4762192;29;20138;-88
2022/06/16 07:46:52;;;;;;;3.17;1.25;;;;;;;17.85;60.96;68752.88;4774744;29;20241;-88
2022/06/16 07:49:25;;;;;;;3.30;1.17;;;;;;;18.08;60.55;68777.97;4799185;29;20058;-88
2022/06/16 07:51:57;;;;;;;3.40;1.30;;;;;;;;;;4797722;29;20042;-86
2022/06/16 07:54:31;;;;;;;2.70;1.20;;;;;;;18.12;59.44;68783.09;4801908;29;20705;-87
2022/06/16 07:57:01;;;;;;;3.58;1.10;;;;;;;18.11;59.43;68781.97;4805273;29;20054;-87
2022/06/16 07:59:30;;;;;;;2.22;0.90;;;;;;;18.21;59.02;68792.81;4813299;29;21606;-89
2022/06/16 08:02:03;;;;;;;4.93;1.15;;;;;;;18.33;58.96;68805.97;4679240;29;4036514;-89
2022/06/16 08:04:38;;;;;;;2.20;0.90;;;;;;;;;;4656413;29;4152461;-89
2022/06/16 08:07:17;;;;;;;3.03;1.00;;;;;;;18.51;58.63;68831.88;4791613;29;20047;-88
2022/06/16 08:09:51;;;;;;;4.32;1.30;;;;;;;18.59;56.78;68835.63;4786337;29;20051;-88
2022/06/16 08:12:28;;;;;;;3.47;1.38;;;;;;;;;;4803672;29;20118;-88
2022/06/16 08:15:20;;;;;;;4.28;1.30;;;;;;;18.34;57.89;68812.47;4825756;29;20427;-88
2022/06/16 08:17:53;;;;;;;2.45;0.90;;;;;;;18.68;58.60;68845.34;4784085;29;20046;-87
2022/06/16 08:20:28;;;;;;;3.00;0.90;;;;;;;;;;4783906;29;20238;-87
2022/06/16 08:22:53;;;;;;;3.38;0.80;;;;;;;;;;4768939;29;20055;-89
2022/06/16 08:25:22;;;;;;;5.07;1.65;;;;;;;;;;4726030;30;20059;-88
2022/06/16 08:27:49;;;;;;;3.55;0.98;;;;;;;;;;4744469;30;20132;-88
2022/06/16 08:30:27;;;;;;;1.15;0.70;;;;;;;18.95;53.40;68875.63;4733433;30;20050;-89
2022/06/16 08:32:58;;;;;;;3.38;1.00;;;;;;;19.25;53.51;68903.34;4729252;30;20048;-91
2022/06/16 08:35:41;;;;;;;1.75;0.90;;;;;;;19.35;53.59;68925.56;4744129;30;20075;-87
2022/06/16 08:38:25;;;;;;;2.95;0.85;;;;;;;19.27;51.93;68908.34;4775949;29;20120;-88
2022/06/16 08:41:18;;;;;;;3.20;1.10;;;;;;;19.24;51.63;68913.56;4805593;23;20058;-87
2022/06/16 08:43:49;;;;;;;2.25;1.02;;;;;;;;;;4933835;29;20055;-87
2022/06/16 08:46:16;;;;;;;2.80;0.80;;;;;;;;;;4979826;28;20042;-87
2022/06/16 08:49:03;;;;;;;3.00;0.90;;;;;;;19.45;52.39;68937.00;4963903;28;20043;-87
2022/06/16 08:52:08;;;;;;;2.33;0.88;;;;;;;19.42;53.05;68928.19;4960781;28;20055;-87
2022/06/16 08:54:57;;;;;;;4.07;1.08;;;;;;;19.54;52.97;68941.31;4937624;28;20106;-87
2022/06/16 08:57:43;;;;;;;1.95;0.73;;;;;;;19.56;51.99;68944.19;4937132;28;20047;-87
2022/06/16 09:00:15;;;;;;;3.30;1.00;;;;;;;19.91;50.48;68983.06;4959045;28;20051;-87
2022/06/16 09:03:06;;;;;;;1.73;0.90;;;;;;;19.88;51.16;68979.63;4946402;28;20517;-87
2022/06/16 09:05:39;;;;;;;2.10;0.95;;;;;;;;;;4957563;28;20061;-87
2022/06/16 09:08:33;;;;;;;3.83;1.00;;;;;;;20.22;50.55;69017.34;4952923;28;20039;-87
2022/06/16 09:11:26;;;;;;;2.80;0.90;;;;;;;20.23;49.88;69018.50;4942167;28;20048;-87
2022/06/16 09:13:51;;;;;;;3.45;1.00;;;;;;;20.23;49.54;69019.06;4971638;28;20052;-87
2022/06/16 09:16:28;;;;;;;3.50;1.13;;;;;;;;;;4963456;28;20259;-87
2022/06/16 09:19:08;;;;;;;2.90;1.05;;;;;;;20.16;50.33;69015.91;4963198;28;20657;-87
2022/06/16 09:22:02;;;;;;;3.85;1.40;;;;;;;20.00;49.97;69001.47;4949908;28;20046;-87
2022/06/16 09:24:49;;;;;;;2.78;1.25;;;;;;;20.29;48.78;69022.66;4963550;28;20109;-87
2022/06/16 09:27:22;;;;;;;4.13;1.40;;;;;;;20.46;52.21;69050.19;4947466;28;20035;-88
2022/06/16 09:30:26;;;;;;;5.93;1.20;;;;;;;20.33;49.89;69029.34;4946883;28;20039;-87
2022/06/16 09:32:58;;;;;;;4.38;1.60;;;;;;;20.42;50.40;69040.22;4938508;28;20582;-86
2022/06/16 09:35:27;;;;;;;4.72;1.10;;;;;;;20.32;50.35;69033.63;4946429;28;20043;-87
2022/06/16 09:37:55;;;;;;;4.35;1.48;;;;;;;20.57;50.68;69056.25;4963431;28;20058;-87
2022/06/16 09:40:26;;;;;;;4.10;1.70;;;;;;;;;;4947536;28;20050;-87
2022/06/16 09:42:52;;;;;;;2.78;1.52;;;;;;;;;;4949087;28;20070;-86
2022/06/16 09:45:23;;;;;;;3.87;1.80;;;;;;;20.92;49.89;69090.88;4963922;28;20090;-87
2022/06/16 09:47:56;;;;;;;4.85;1.52;;;;;;;20.69;51.09;69067.28;4949501;28;20670;-86
2022/06/16 09:50:25;;;;;;;4.30;1.50;;;;;;;21.14;49.93;69120.28;4949230;28;20047;-86
2022/06/16 09:53:03;;;;;;;2.60;1.50;;;;;;;;;;4947285;28;20115;-87
2022/06/16 09:55:28;;;;;;;7.20;2.37;;;;;;;;;;4961925;28;20121;-87
2022/06/16 09:58:09;;;;;;;5.32;2.20;;;;;;;21.02;47.61;69103.88;4963593;28;20527;-86
2022/06/16 10:00:35;;;;;;;4.97;2.08;;;;;;;;;;4948419;28;20049;-86
2022/06/16 10:03:17;;;;;;;4.47;2.00;;;;;;;21.24;46.89;69131.75;4948652;28;20571;-87
2022/06/16 10:06:04;;;;;;;4.35;2.00;;;;;;;21.23;48.17;69136.00;4945354;28;20052;-87
2022/06/16 10:08:45;;;;;;;6.03;1.60;;;;;;;21.49;48.45;69159.22;4948408;28;20051;-88
2022/06/16 10:11:30;;;;;;;4.95;2.40;;;;;;;21.46;46.98;69155.78;4947173;28;20054;-87
2022/06/16 10:14:16;;;;;;;5.30;2.10;;;;;;;21.18;47.10;69124.88;4947603;28;20050;-87
2022/06/16 10:17:04;;;;;;;4.57;1.90;;;;;;;21.42;47.29;69151.22;4967089;28;20044;-88
2022/06/16 10:19:34;;;;;;;4.53;1.80;;;;;;;21.57;47.99;69168.94;4966802;28;20042;-86
2022/06/16 10:22:01;;;;;;;3.97;1.90;;;;;;;21.45;46.44;69155.22;4984316;28;20043;-89
2022/06/16 10:24:58;;;;;;;4.90;1.70;;;;;;;21.55;48.38;69166.09;4952365;28;20109;-88
2022/06/16 10:27:31;;;;;;;4.25;1.88;;;;;;;21.88;48.08;69202.72;4951272;28;20083;-88
2022/06/16 10:29:58;;;;;;;4.03;1.73;;;;;;;;;;4984110;28;20046;-87
2022/06/16 10:32:37;;;;;;;4.28;2.20;;;;;;;21.89;45.43;69201.16;4950310;28;20205;-87
2022/06/16 10:35:05;;;;;;;4.32;2.30;;;;;;;21.68;45.81;69180.41;4938113;28;20131;-88
2022/06/16 10:37:31;;;;;;;5.03;2.25;;;;;;;21.81;47.10;69200.72;4959571;28;20040;-88
2022/06/16 10:40:17;;;;;;;3.17;2.00;;;;;;;21.85;47.64;69205.84;4980336;28;20149;-87
2022/06/16 10:42:47;;;;;;;6.40;2.30;;;;;;;;;;4935217;28;20053;-87
2022/06/16 10:45:18;;;;;;;4.35;2.25;;;;;;;21.74;47.15;69187.84;4952181;28;20077;-88
2022/06/16 10:48:00;;;;;;;5.93;2.00;;;;;;;21.96;46.79;69211.88;4951760;28;20031;-88
2022/06/16 10:50:39;;;;;;;3.65;1.67;;;;;;;22.04;46.85;69218.34;4949645;28;20130;-88
2022/06/16 10:53:26;;;;;;;5.20;2.15;;;;;;;;;;4963398;28;20039;-88
2022/06/16 10:55:57;;;;;;;3.88;1.92;;;;;;;22.15;47.24;69233.63;4984608;28;20862;-88
2022/06/16 10:58:26;;;;;;;3.88;1.88;;;;;;;22.30;45.91;69248.13;4941354;28;20052;-88
2022/06/16 11:01:07;;;;;;;4.25;2.20;;;;;;;22.46;47.17;69268.00;4943403;28;20050;-88
2022/06/16 11:03:36;;;;;;;5.55;1.80;;;;;;;22.49;45.69;69271.44;4946691;28;20127;-89
2022/06/16 11:06:04;;;;;;;4.32;2.40;;;;;;;22.49;44.59;69272.00;4950194;28;20107;-88
2022/06/16 11:08:36;;;;;;;4.40;2.03;;;;;;;;;;4956588;28;20051;-89
2022/06/16 11:11:03;;;;;;;4.25;2.00;;;;;;;22.38;47.04;69264.81;4947633;28;20052;-88
2022/06/16 11:13:35;;;;;;;7.82;2.50;;;;;;;;;;4947050;28;20581;-90
2022/06/16 11:16:07;;;;;;;5.35;2.10;;;;;;;22.52;44.39;69274.88;4958832;28;20051;-89
2022/06/16 11:18:33;;;;;;;3.83;1.95;;;;;;;22.81;45.96;69306.94;4948857;28;20511;-90
2022/06/16 11:21:00;;;;;;;4.75;2.28;;;;;;;22.64;44.43;69288.03;4962159;28;20044;-89
2022/06/16 11:23:33;;;;;;;4.07;2.30;;;;;;;;;;4963526;28;20519;-88
2022/06/16 11:26:30;;;;;;;4.13;2.17;;;;;;;22.64;43.64;69288.03;4964004;28;20126;-90
2022/06/16 11:28:58;;;;;;;5.00;2.20;;;;;;;;;;4949848;28;20066;-90
2022/06/16 11:31:34;;;;;;;5.20;2.28;;;;;;;22.74;42.97;69294.63;4947775;28;20083;-90
2022/06/16 11:34:17;;;;;;;5.57;2.47;;;;;;;22.65;44.99;69295.19;4948388;28;20082;-90
2022/06/16 11:37:08;;;;;;;3.20;1.92;;;;;;;22.69;46.48;69299.75;4957144;28;20053;-90
2022/06/16 11:39:43;;;;;;;5.53;2.42;;;;;;;22.56;45.01;69279.47;4948553;28;20525;-90
2022/06/16 11:42:50;;;;;;;6.82;2.50;;;;;;;22.61;45.93;69281.88;4950158;28;20054;-90
2022/06/16 11:45:42;;;;;;;4.93;2.25;;;;;;;22.90;44.07;69314.53;4946735;28;20047;-90
2022/06/16 11:48:26;;;;;;;3.08;1.80;;;;;;;23.13;46.43;69340.91;4948293;28;20411;-91
2022/06/16 11:51:20;;;;;;;5.45;2.20;;;;;;;23.43;43.67;69377.41;4946446;28;20051;-91
2022/06/16 11:54:10;;;;;;;7.13;2.13;;;;;;;23.44;42.42;69372.56;4934072;28;20074;-90
2022/06/16 11:56:48;;;;;;;2.90;1.85;;;;;;;23.73;44.94;69410.09;4948615;28;20407;-89
2022/06/16 11:59:29;;;;;;;5.75;2.20;;;;;;;23.77;42.99;69412.56;4948423;28;20131;-89
2022/06/16 12:02:00;;;;;;;5.55;1.92;;;;;;;;;;4967156;28;20046;-90
2022/06/16 12:05:09;;;;;;;6.07;2.17;;;;;;;23.65;41.02;69398.78;4979391;28;20047;-89
2022/06/16 12:07:37;;;;;;;4.20;2.10;;;;;;;23.45;43.39;69373.72;4964050;28;20043;-89
2022/06/16 12:10:32;;;;;;;4.45;2.22;;;;;;;23.66;41.33;69399.91;4977656;28;20079;-90
2022/06/16 12:13:17;;;;;;;4.65;2.00;;;;;;;23.57;41.92;69390.19;4961247;28;20047;-90
2022/06/16 12:15:52;;;;;;;3.97;1.85;;;;;;;23.80;42.13;69418.13;4933369;28;20064;-90
2022/06/16 12:18:38;;;;;;;4.75;2.00;;;;;;;24.18;41.40;69457.81;4948874;28;20035;-90
2022/06/16 12:21:26;;;;;;;5.43;2.28;;;;;;;;;;4949836;28;20039;-90
2022/06/16 12:24:13;;;;;;;4.77;2.27;;;;;;;23.97;39.80;69437.06;4920740;28;20685;-90
2022/06/16 12:26:51;;;;;;;3.55;2.28;;;;;;;23.73;40.69;69407.38;4981455;28;20411;-90
2022/06/16 12:29:25;;;;;;;5.15;2.00;;;;;;;;;;4982209;28;20499;-89
2022/06/16 12:32:12;;;;;;;3.90;1.88;;;;;;;24.23;43.22;69463.56;4966450;28;20054;-90
2022/06/16 12:34:59;;;;;;;4.68;1.70;;;;;;;24.54;42.29;69507.28;4980211;28;20047;-90
2022/06/16 12:37:29;;;;;;;4.10;2.00;;;;;;;24.65;41.18;69510.59;4946473;28;20105;-89
2022/06/16 12:40:00;;;;;;;4.72;1.70;;;;;;;25.14;40.08;69568.97;4966501;28;20054;-89
2022/06/16 12:42:32;;;;;;;4.30;1.90;;;;;;;24.88;39.20;69539.69;4948833;28;20057;-89
2022/06/16 12:45:02;;;;;;;4.82;2.15;;;;;;;;;;4950453;28;20043;-90
2022/06/16 12:47:33;;;;;;;4.45;1.63;;;;;;;24.71;39.76;69520.19;4950597;28;20093;-89
2022/06/16 12:50:03;;;;;;;5.82;1.80;;;;;;;24.84;39.94;69532.38;4950240;28;20055;-90
2022/06/16 12:52:38;;;;;;;3.28;1.70;;;;;;;24.71;41.28;69518.03;4964359;28;20122;-90
2022/06/16 12:55:20;;;;;;;4.63;1.83;;;;;;;24.53;39.26;69500.13;4949447;28;20044;-90
2022/06/16 12:58:30;;;;;;;6.32;2.13;;;;;;;24.33;40.12;69472.88;4980392;28;20050;-90